createdAt,value
2022-10-19T00:01:21.551Z,9.70
2022-10-19T00:03:54.467Z,9.75
2022-10-19T00:06:28.226Z,10.40
2022-10-19T00:08:59.349Z,10.45
2022-10-19T00:11:30.186Z,10.35
2022-10-19T00:14:00.331Z,10.25
2022-10-19T00:16:34.923Z,10.60
2022-10-19T00:19:08.453Z,11.17
2022-10-19T00:21:40.129Z,10.40
2022-10-19T00:24:09.964Z,10.73
2022-10-19T00:26:38.574Z,11.40
2022-10-19T00:29:09.438Z,11.50
2022-10-19T00:31:38.257Z,12.27
2022-10-19T00:34:08.318Z,10.55
2022-10-19T00:36:41.139Z,11.32
2022-10-19T00:39:16.516Z,10.88
2022-10-19T00:41:48.296Z,11.27
2022-10-19T00:44:17.133Z,11.68
2022-10-19T00:46:49.651Z,11.35
2022-10-19T00:49:34.750Z,10.73
2022-10-19T00:52:07.921Z,11.15
2022-10-19T00:54:40.003Z,11.93
2022-10-19T00:57:10.131Z,11.32
2022-10-19T00:59:41.157Z,10.88
2022-10-19T01:02:13.795Z,11.45
2022-10-19T01:04:49.724Z,10.85
2022-10-19T01:07:19.798Z,11.43
2022-10-19T01:09:49.679Z,11.15
2022-10-19T01:12:47.355Z,11.07
2022-10-19T01:15:17.326Z,10.77
2022-10-19T01:18:09.847Z,10.88
2022-10-19T01:20:48.848Z,10.07
2022-10-19T01:23:21.869Z,10.45
2022-10-19T01:26:10.256Z,10.32
2022-10-19T01:28:49.062Z,10.45
2022-10-19T01:31:39.535Z,10.80
2022-10-19T01:34:50.148Z,11.07
2022-10-19T01:37:26.089Z,10.98
2022-10-19T01:40:16.650Z,11.20
2022-10-19T01:43:09.222Z,10.43
2022-10-19T01:45:58.867Z,10.23
2022-10-19T01:48:32.583Z,10.77
2022-10-19T01:51:20.769Z,10.50
2022-10-19T01:53:55.207Z,11.15
2022-10-19T01:56:30.079Z,10.85
2022-10-19T01:59:03.038Z,10.32
2022-10-19T02:01:38.137Z,11.13
2022-10-19T02:04:08.488Z,10.85
2022-10-19T02:06:38.864Z,11.35
2022-10-19T02:09:09.352Z,10.90
2022-10-19T02:11:41.834Z,10.77
2022-10-19T02:14:17.671Z,10.32
2022-10-19T02:17:16.568Z,10.60
2022-10-19T02:19:46.572Z,10.32
2022-10-19T02:22:15.612Z,10.55
2022-10-19T02:24:45.477Z,9.80
2022-10-19T02:27:16.195Z,10.40
2022-10-19T02:29:46.353Z,10.07
2022-10-19T02:32:16.577Z,10.47
2022-10-19T02:34:46.505Z,10.05
2022-10-19T02:37:15.649Z,10.40
2022-10-19T02:39:45.806Z,10.43
2022-10-19T02:42:40.671Z,9.77
2022-10-19T02:45:22.495Z,10.02
2022-10-19T02:47:56.429Z,10.52
2022-10-19T02:50:27.082Z,9.80
2022-10-19T02:52:56.915Z,9.73
2022-10-19T02:55:26.971Z,10.20
2022-10-19T02:57:56.409Z,10.50
2022-10-19T03:00:28.823Z,9.23
2022-10-19T03:02:59.071Z,9.10
2022-10-19T03:05:31.458Z,9.80
2022-10-19T03:08:02.102Z,9.47
2022-10-19T03:10:32.216Z,8.57
2022-10-19T03:13:02.680Z,10.70
2022-10-19T03:15:32.835Z,10.20
2022-10-19T03:18:02.679Z,9.75
2022-10-19T03:20:33.467Z,9.40
2022-10-19T03:23:03.741Z,9.77
2022-10-19T03:25:32.768Z,10.88
2022-10-19T03:28:02.651Z,10.43
2022-10-19T03:30:33.327Z,10.68
2022-10-19T03:33:03.569Z,10.63
2022-10-19T03:35:36.763Z,9.95
2022-10-19T03:38:06.904Z,10.35
2022-10-19T03:40:36.342Z,10.73
2022-10-19T03:43:06.414Z,10.95
2022-10-19T03:45:36.720Z,10.45
2022-10-19T03:48:09.472Z,10.50
2022-10-19T03:50:38.503Z,9.95
2022-10-19T03:53:08.738Z,10.63
2022-10-19T03:55:38.858Z,10.55
2022-10-19T03:58:08.913Z,9.80
2022-10-19T04:00:38.259Z,9.60
2022-10-19T04:03:08.172Z,9.32
2022-10-19T04:05:38.608Z,10.30
2022-10-19T04:08:09.402Z,11.32
2022-10-19T04:10:45.755Z,10.48
2022-10-19T04:13:15.914Z,10.50
2022-10-19T04:15:46.493Z,10.05
2022-10-19T04:18:20.115Z,10.25
2022-10-19T04:20:50.418Z,9.77
2022-10-19T04:23:20.929Z,10.52
2022-10-19T04:25:51.194Z,10.73
2022-10-19T04:28:20.181Z,9.90
2022-10-19T04:30:52.949Z,9.93
2022-10-19T04:33:23.386Z,10.70
2022-10-19T04:35:59.918Z,10.27
2022-10-19T04:38:31.697Z,10.80
2022-10-19T04:41:06.644Z,10.53
2022-10-19T04:43:37.075Z,10.85
2022-10-19T04:46:19.416Z,10.65
2022-10-19T04:48:50.993Z,10.70
2022-10-19T04:51:24.841Z,11.25
2022-10-19T04:53:57.002Z,10.35
2022-10-19T04:56:33.594Z,11.40
2022-10-19T04:59:04.413Z,12.38
2022-10-19T05:01:34.904Z,11.27
2022-10-19T05:04:05.678Z,11.23
2022-10-19T05:06:35.978Z,10.60
2022-10-19T05:09:09.476Z,11.20
2022-10-19T05:11:39.825Z,11.20
2022-10-19T05:14:11.031Z,11.65
2022-10-19T05:16:41.137Z,11.35
2022-10-19T05:19:16.721Z,10.10
2022-10-19T05:21:45.943Z,11.77
2022-10-19T05:24:15.942Z,12.50
2022-10-19T05:26:46.094Z,10.77
2022-10-19T05:29:16.872Z,11.73
2022-10-19T05:31:46.102Z,12.02
2022-10-19T05:34:15.323Z,11.73
2022-10-19T05:36:45.804Z,13.50
2022-10-19T05:39:27.277Z,12.32
2022-10-19T05:41:57.657Z,12.73
2022-10-19T05:44:27.847Z,12.70
2022-10-19T05:46:58.268Z,12.15
2022-10-19T05:49:31.419Z,11.43
2022-10-19T05:52:01.476Z,12.35
2022-10-19T05:54:30.562Z,11.35
2022-10-19T05:56:59.453Z,11.32
2022-10-19T05:59:29.543Z,11.57
2022-10-19T06:02:00.539Z,12.90
2022-10-19T06:04:30.667Z,12.05
2022-10-19T06:07:00.528Z,10.93
2022-10-19T06:09:33.516Z,11.40
2022-10-19T06:12:17.917Z,10.57
2022-10-19T06:14:52.869Z,10.57
2022-10-19T06:17:25.903Z,10.20
2022-10-19T06:19:56.281Z,10.60
2022-10-19T06:22:26.399Z,10.50
2022-10-19T06:24:55.385Z,11.02
2022-10-19T06:27:25.423Z,10.67
2022-10-19T06:29:56.025Z,10.88
2022-10-19T06:32:28.771Z,11.10
2022-10-19T06:34:59.270Z,10.30
2022-10-19T06:37:29.311Z,12.00
2022-10-19T06:40:06.917Z,10.82
2022-10-19T06:42:44.417Z,10.18
2022-10-19T06:45:16.813Z,11.00
2022-10-19T06:50:23.764Z,11.70
2022-10-19T06:52:59.877Z,10.83
2022-10-19T06:55:33.376Z,10.88
2022-10-19T06:58:03.082Z,11.15
2022-10-19T07:00:33.773Z,11.02
2022-10-19T07:03:02.983Z,10.43
2022-10-19T07:05:32.846Z,9.85
2022-10-19T07:08:03.032Z,10.48
2022-10-19T07:10:35.912Z,10.25
2022-10-19T07:13:06.360Z,11.35
2022-10-19T07:15:39.807Z,11.60
2022-10-19T07:18:09.805Z,10.93
2022-10-19T07:20:38.479Z,10.30
2022-10-19T07:23:07.801Z,10.90
2022-10-19T07:25:38.743Z,10.40
2022-10-19T07:28:07.697Z,11.25
2022-10-19T07:30:39.805Z,11.10
2022-10-19T07:33:08.567Z,11.52
2022-10-19T07:35:38.182Z,10.88
2022-10-19T07:38:07.156Z,10.02
2022-10-19T07:40:36.840Z,10.27
2022-10-19T07:43:06.466Z,9.30
2022-10-19T07:45:35.098Z,10.23
2022-10-19T07:48:03.934Z,10.45
2022-10-19T07:50:32.746Z,10.77
2022-10-19T07:53:03.640Z,10.45
2022-10-19T07:55:35.431Z,10.45
2022-10-19T07:58:04.129Z,9.73
2022-10-19T08:00:32.706Z,10.32
2022-10-19T08:03:31.681Z,9.38
2022-10-19T08:05:50.643Z,9.55
2022-10-19T08:08:19.357Z,10.77
2022-10-19T08:10:48.140Z,11.15
2022-10-19T08:13:17.386Z,10.70
2022-10-19T08:15:46.296Z,11.13
2022-10-19T08:18:14.978Z,10.90
2022-10-19T08:20:45.124Z,10.60
2022-10-19T08:23:13.658Z,10.52
2022-10-19T08:25:42.259Z,10.50
2022-10-19T08:28:11.295Z,10.52
2022-10-19T08:30:39.996Z,11.40
2022-10-19T08:33:09.300Z,10.02
2022-10-19T08:35:38.672Z,11.20
2022-10-19T08:38:07.329Z,11.15
2022-10-19T08:40:36.742Z,10.52
2022-10-19T08:43:17.146Z,10.35
2022-10-19T08:46:24.268Z,10.60
2022-10-19T08:48:54.041Z,11.10
2022-10-19T08:51:22.691Z,10.13
2022-10-19T08:53:58.652Z,10.82
2022-10-19T08:57:09.549Z,10.80
2022-10-19T09:00:08.307Z,10.23
2022-10-19T09:03:04.350Z,10.93
2022-10-19T09:05:43.556Z,10.70
2022-10-19T09:08:17.735Z,10.23
2022-10-19T09:10:51.111Z,10.25
2022-10-19T09:14:03.847Z,10.63
2022-10-19T09:16:32.181Z,10.45
2022-10-19T09:19:00.732Z,10.00
2022-10-19T09:21:48.195Z,9.82
2022-10-19T09:24:45.483Z,10.63
2022-10-19T09:27:32.502Z,10.40
2022-10-19T09:30:07.728Z,9.43
2022-10-19T09:32:39.743Z,10.07
2022-10-19T09:35:36.655Z,9.60
2022-10-19T09:38:08.738Z,11.32
2022-10-19T09:40:37.682Z,10.52
2022-10-19T09:43:20.979Z,10.65
2022-10-19T09:46:21.488Z,10.15
2022-10-19T09:48:53.223Z,10.40
2022-10-19T09:51:24.589Z,10.80
2022-10-19T09:53:56.003Z,9.80
2022-10-19T09:56:27.759Z,11.32
2022-10-19T09:58:59.161Z,11.32
2022-10-19T10:01:41.613Z,10.77
2022-10-19T10:04:19.924Z,11.77
2022-10-19T10:06:49.630Z,11.30
2022-10-19T10:09:27.529Z,10.23
2022-10-19T10:12:00.408Z,10.57
2022-10-19T10:14:35.863Z,10.73
2022-10-19T10:17:13.385Z,11.07
2022-10-19T10:19:53.182Z,10.88
2022-10-19T10:22:58.191Z,10.70
2022-10-19T10:25:33.743Z,10.80
2022-10-19T10:28:22.616Z,10.38
2022-10-19T10:31:06.091Z,10.20
2022-10-19T10:33:46.252Z,11.25
2022-10-19T10:36:15.556Z,10.27
2022-10-19T10:38:53.093Z,11.10
2022-10-19T10:41:25.058Z,10.17
2022-10-19T10:44:05.254Z,10.40
2022-10-19T10:46:38.024Z,9.82
2022-10-19T10:49:09.074Z,10.65
2022-10-19T10:51:50.735Z,10.05
2022-10-19T10:54:22.660Z,10.60
2022-10-19T10:57:06.615Z,10.80
2022-10-19T10:59:52.659Z,11.05
2022-10-19T11:02:33.780Z,10.38
2022-10-19T11:05:30.654Z,10.52
2022-10-19T11:08:06.482Z,10.50
2022-10-19T11:10:40.822Z,11.40
2022-10-19T11:13:13.109Z,11.13
2022-10-19T11:15:54.293Z,11.05
2022-10-19T11:18:52.020Z,10.93
2022-10-19T11:21:51.694Z,10.80
2022-10-19T11:24:48.856Z,11.52
2022-10-19T11:27:59.228Z,11.70
2022-10-19T11:30:28.577Z,14.52
2022-10-19T11:33:06.843Z,14.55
2022-10-19T11:35:40.420Z,14.25
2022-10-19T11:38:29.636Z,15.50
2022-10-19T11:41:18.282Z,15.55
2022-10-19T11:43:56.402Z,15.02
2022-10-19T11:46:25.154Z,14.60
2022-10-19T11:49:11.053Z,14.98
2022-10-19T11:52:00.980Z,15.88
2022-10-19T11:54:59.400Z,16.75
2022-10-19T11:58:04.182Z,16.17
2022-10-19T12:00:48.663Z,16.20
2022-10-19T12:03:27.849Z,16.73
2022-10-19T12:06:17.594Z,16.75
2022-10-19T12:09:00.859Z,17.30
2022-10-19T12:11:50.968Z,16.65
2022-10-19T12:14:26.545Z,17.08
2022-10-19T12:17:01.182Z,16.90
2022-10-19T12:19:43.860Z,17.20
2022-10-19T12:22:21.394Z,18.33
2022-10-19T12:24:52.737Z,17.70
2022-10-19T12:27:31.928Z,17.90
2022-10-19T12:30:10.338Z,17.80
2022-10-19T12:32:53.466Z,21.00
2022-10-19T12:36:16.222Z,18.50
2022-10-19T12:38:50.814Z,19.17
2022-10-19T12:41:38.478Z,18.88
2022-10-19T12:44:16.060Z,18.65
2022-10-19T12:46:53.016Z,18.25
2022-10-19T12:49:37.388Z,18.48
2022-10-19T12:52:11.994Z,20.40
2022-10-19T12:54:43.706Z,18.75
2022-10-19T12:57:28.937Z,18.58
2022-10-19T13:00:08.310Z,21.58
2022-10-19T13:02:40.141Z,18.88
2022-10-19T13:05:09.410Z,19.83
2022-10-19T13:07:38.713Z,19.88
2022-10-19T13:10:21.232Z,18.95
2022-10-19T13:12:50.801Z,19.92
2022-10-19T13:15:35.772Z,17.63
2022-10-19T13:18:12.823Z,18.73
2022-10-19T13:20:42.346Z,17.98
2022-10-19T13:23:11.009Z,16.63
2022-10-19T13:25:41.150Z,17.17
2022-10-19T13:28:18.676Z,13.63
2022-10-19T13:30:48.262Z,14.70
2022-10-19T13:33:35.865Z,15.30
2022-10-19T13:36:12.291Z,14.15
2022-10-19T13:39:06.916Z,13.43
2022-10-19T13:41:36.102Z,14.20
2022-10-19T13:44:07.742Z,14.40
2022-10-19T13:47:13.560Z,14.77
2022-10-19T13:49:57.320Z,15.20
2022-10-19T13:52:46.367Z,15.32
2022-10-19T13:55:52.653Z,14.75
2022-10-19T13:58:43.381Z,14.43
2022-10-19T14:01:23.781Z,13.98
2022-10-19T14:04:16.578Z,12.45
2022-10-19T14:06:54.585Z,12.23
2022-10-19T14:09:37.920Z,10.75
2022-10-19T14:12:29.769Z,10.93
2022-10-19T14:14:59.257Z,10.98
2022-10-19T14:17:34.812Z,11.63
2022-10-19T14:20:05.119Z,12.18
2022-10-19T14:22:35.033Z,11.15
2022-10-19T14:25:07.018Z,10.93
2022-10-19T14:27:36.690Z,10.63
2022-10-19T14:30:06.717Z,11.10
2022-10-19T14:32:36.614Z,10.15
2022-10-19T14:35:19.081Z,10.27
2022-10-19T14:37:48.850Z,10.43
2022-10-19T14:40:28.909Z,9.98
2022-10-19T14:43:00.743Z,9.82
2022-10-19T14:45:34.111Z,9.30
2022-10-19T14:48:06.325Z,9.80
2022-10-19T14:53:31.909Z,9.40
2022-10-19T14:56:08.070Z,9.68
2022-10-19T14:58:55.569Z,9.02
2022-10-19T15:01:24.657Z,8.70
2022-10-19T15:03:54.110Z,8.65
2022-10-19T15:06:31.865Z,8.57
2022-10-19T15:09:15.379Z,9.10
2022-10-19T15:11:55.257Z,9.35
2022-10-19T15:14:29.641Z,9.52
2022-10-19T15:17:03.845Z,9.13
2022-10-19T15:19:39.958Z,9.65
2022-10-19T15:22:32.422Z,9.67
2022-10-19T15:25:07.301Z,9.80
2022-10-19T15:27:38.931Z,8.90
2022-10-19T15:30:32.753Z,9.77
2022-10-19T15:33:02.794Z,9.07
2022-10-19T15:35:34.990Z,9.35
2022-10-19T15:38:28.266Z,9.90
2022-10-19T15:41:05.847Z,10.37
2022-10-19T15:43:56.061Z,10.80
2022-10-19T15:46:35.531Z,10.88
2022-10-19T15:49:19.371Z,10.38
2022-10-19T15:51:50.428Z,10.65
2022-10-19T15:54:20.505Z,10.63
2022-10-19T15:56:54.262Z,10.35
2022-10-19T15:59:24.971Z,10.60
2022-10-19T16:01:56.135Z,10.00
2022-10-19T16:04:25.674Z,9.52
2022-10-19T16:06:54.540Z,10.48
2022-10-19T16:09:23.669Z,10.95
2022-10-19T16:11:57.602Z,10.57
2022-10-19T16:14:33.050Z,10.70
2022-10-19T16:17:06.162Z,11.00
2022-10-19T16:19:34.939Z,11.07
2022-10-19T16:22:03.962Z,11.52
2022-10-19T16:24:33.289Z,10.73
2022-10-19T16:27:02.648Z,11.98
2022-10-19T16:29:31.446Z,11.47
2022-10-19T16:32:00.959Z,11.45
2022-10-19T16:34:29.789Z,12.10
2022-10-19T16:37:02.594Z,12.32
2022-10-19T16:39:34.993Z,12.32
2022-10-19T16:42:03.663Z,10.50
2022-10-19T16:44:35.343Z,11.95
2022-10-19T16:47:05.943Z,11.93
2022-10-19T16:49:34.979Z,11.35
2022-10-19T16:52:03.759Z,11.90
2022-10-19T16:54:33.923Z,10.70
2022-10-19T16:57:07.127Z,11.57
2022-10-19T16:59:38.904Z,11.10
2022-10-19T17:02:08.253Z,11.10
2022-10-19T17:04:37.785Z,10.40
2022-10-19T17:07:08.788Z,10.52
2022-10-19T17:09:41.752Z,10.98
2022-10-19T17:12:11.744Z,10.50
2022-10-19T17:14:42.458Z,10.43
2022-10-19T17:17:13.541Z,10.40
2022-10-19T17:19:43.363Z,10.75
2022-10-19T17:22:12.076Z,11.25
2022-10-19T17:24:41.944Z,10.57
2022-10-19T17:27:11.122Z,10.80
2022-10-19T17:29:40.096Z,10.27
2022-10-19T17:32:09.984Z,11.25
2022-10-19T17:34:39.020Z,10.77
2022-10-19T17:37:08.333Z,11.45
2022-10-19T17:39:37.762Z,11.70
2022-10-19T17:42:06.627Z,11.60
2022-10-19T17:44:35.821Z,11.40
2022-10-19T17:47:04.976Z,10.50
2022-10-19T17:49:34.033Z,12.48
2022-10-19T17:52:02.834Z,13.25
2022-10-19T17:54:39.614Z,13.43
2022-10-19T17:57:17.656Z,10.68
2022-10-19T17:59:52.797Z,12.05
2022-10-19T18:02:22.524Z,12.65
2022-10-19T18:04:51.825Z,13.38
2022-10-19T18:07:23.132Z,13.20
2022-10-19T18:09:52.118Z,11.43
2022-10-19T18:12:20.821Z,9.83
2022-10-19T18:14:49.776Z,8.10
2022-10-19T18:17:18.500Z,7.55
2022-10-19T18:19:47.711Z,8.45
2022-10-19T18:22:16.903Z,7.60
2022-10-19T18:24:46.105Z,6.45
2022-10-19T18:27:14.986Z,4.75
2022-10-19T18:29:44.030Z,4.28
2022-10-19T18:32:14.753Z,3.38
2022-10-19T18:34:44.502Z,3.50
2022-10-19T18:37:13.223Z,4.28
2022-10-19T18:39:42.885Z,2.72
2022-10-19T18:42:13.621Z,2.67
2022-10-19T18:44:43.071Z,2.95
2022-10-19T18:47:13.198Z,2.63
2022-10-19T18:49:42.151Z,2.75
2022-10-19T18:52:10.814Z,2.97
2022-10-19T18:54:40.109Z,1.92
2022-10-19T18:57:08.786Z,2.20
2022-10-19T18:59:38.538Z,1.90
2022-10-19T19:02:13.645Z,1.95
2022-10-19T19:04:52.043Z,2.17
2022-10-19T19:07:21.181Z,2.00
2022-10-19T19:09:52.444Z,2.00
2022-10-19T19:12:23.854Z,2.28
2022-10-19T19:14:52.902Z,1.73
2022-10-19T19:17:21.831Z,2.08
2022-10-19T19:19:50.723Z,3.30
2022-10-19T19:22:19.413Z,3.00
2022-10-19T19:24:51.363Z,2.67
2022-10-19T19:27:26.161Z,2.97
2022-10-19T19:29:59.998Z,3.65
2022-10-19T19:32:28.975Z,3.55
2022-10-19T19:34:57.694Z,3.78
2022-10-19T19:37:27.088Z,3.72
2022-10-19T19:39:55.769Z,3.83
2022-10-19T19:42:27.781Z,4.68
2022-10-19T19:44:57.437Z,4.78
2022-10-19T19:47:26.211Z,4.55
2022-10-19T19:49:55.103Z,5.25
2022-10-19T19:52:24.160Z,5.27
2022-10-19T19:54:53.878Z,6.00
2022-10-19T19:57:23.441Z,5.97
2022-10-19T19:59:52.841Z,9.57
2022-10-19T20:02:22.175Z,6.90
2022-10-19T20:04:51.563Z,7.70
2022-10-19T20:07:20.353Z,2.53
2022-10-19T20:09:49.787Z,2.03
2022-10-19T20:12:18.886Z,1.30
2022-10-19T20:14:47.794Z,2.90
2022-10-19T20:17:17.753Z,0.95
2022-10-19T20:19:47.119Z,1.30
2022-10-19T20:22:17.194Z,0.80
2022-10-19T20:24:47.244Z,1.25
2022-10-19T20:27:15.994Z,2.05
2022-10-19T20:29:45.615Z,2.30
2022-10-19T20:32:14.361Z,2.35
2022-10-19T20:34:43.417Z,2.53
2022-10-19T20:37:12.309Z,3.10
2022-10-19T20:39:41.324Z,1.88
2022-10-19T20:42:09.989Z,1.80
2022-10-19T20:44:39.810Z,1.65
2022-10-19T20:47:08.581Z,1.80
2022-10-19T20:49:37.914Z,2.00
2022-10-19T20:52:06.673Z,3.63
2022-10-19T20:54:36.755Z,5.70
2022-10-19T20:57:05.455Z,5.13
2022-10-19T20:59:34.401Z,9.10
2022-10-19T21:02:03.326Z,7.03
2022-10-19T21:04:32.233Z,6.38
2022-10-19T21:07:02.001Z,16.38
2022-10-19T21:09:31.035Z,10.18
2022-10-19T21:12:00.108Z,4.75
2022-10-19T21:14:30.931Z,5.77
2022-10-19T21:17:00.924Z,10.52
2022-10-19T21:19:31.817Z,12.85
2022-10-19T21:22:03.082Z,7.75
2022-10-19T21:24:35.070Z,7.93
2022-10-19T21:27:06.806Z,6.93
2022-10-19T21:29:37.169Z,4.43
2022-10-19T21:32:08.519Z,3.13
2022-10-19T21:34:37.757Z,3.63
2022-10-19T21:37:06.418Z,4.07
2022-10-19T21:39:35.296Z,2.75
2022-10-19T21:42:04.109Z,2.45
2022-10-19T21:44:33.766Z,1.63
2022-10-19T21:47:02.582Z,1.38
2022-10-19T21:49:31.519Z,3.20
2022-10-19T21:52:00.247Z,6.30
2022-10-19T21:54:30.251Z,10.70
2022-10-19T21:57:01.346Z,11.77
2022-10-19T21:59:30.517Z,6.05
2022-10-19T22:02:00.657Z,5.90
2022-10-19T22:04:30.886Z,5.03
2022-10-19T22:07:01.516Z,5.40
2022-10-19T22:09:30.489Z,12.75
2022-10-19T22:11:59.445Z,13.25
2022-10-19T22:14:28.588Z,4.97
2022-10-19T22:16:57.430Z,4.13
2022-10-19T22:19:27.242Z,4.30
2022-10-19T22:21:56.056Z,4.50
2022-10-19T22:24:24.895Z,4.28
2022-10-19T22:26:53.972Z,3.72
2022-10-19T22:29:23.777Z,4.40
2022-10-19T22:31:52.513Z,4.20
2022-10-19T22:34:21.875Z,4.53
2022-10-19T22:36:50.646Z,4.60
2022-10-19T22:39:19.684Z,4.75
2022-10-19T22:41:48.568Z,4.68
2022-10-19T22:44:17.424Z,4.72
2022-10-19T22:46:46.101Z,4.30
2022-10-19T22:49:15.114Z,4.40
2022-10-19T22:51:44.171Z,4.82
2022-10-19T22:54:13.137Z,4.67
2022-10-19T22:56:42.302Z,4.00
2022-10-19T22:59:11.546Z,3.80
2022-10-19T23:01:40.325Z,4.25
2022-10-19T23:04:09.407Z,4.30
2022-10-19T23:06:38.319Z,3.80
2022-10-19T23:09:09.629Z,4.05
2022-10-19T23:11:38.469Z,4.30
2022-10-19T23:14:07.138Z,4.32
2022-10-19T23:16:36.239Z,4.38
2022-10-19T23:19:05.390Z,4.40
2022-10-19T23:21:37.321Z,4.63
2022-10-19T23:24:06.941Z,4.75
2022-10-19T23:26:35.863Z,4.30
2022-10-19T23:29:04.896Z,3.97
2022-10-19T23:31:34.717Z,4.28
2022-10-19T23:34:03.790Z,4.00
2022-10-19T23:36:32.510Z,4.07
2022-10-19T23:39:01.933Z,3.72
2022-10-19T23:41:30.668Z,3.97
2022-10-19T23:43:59.519Z,3.80
2022-10-19T23:46:28.265Z,4.15
2022-10-19T23:48:57.219Z,4.18
2022-10-19T23:51:25.937Z,4.03
2022-10-19T23:53:55.274Z,3.92
2022-10-19T23:56:27.481Z,3.50
2022-10-19T23:58:57.791Z,3.28
